Time;durP1;ratioP1;P1;durP2;ratioP2;P2;SDS_P1;SDS_P2;PMS_P1;PMS_P2;Temp;Humidity;BMP_temperature;BMP_pressure;BME280_temperature;BME280_humidity;BME280_pressure;Samples;Min_cycle;Max_cycle;Signal;HPM_P1;HPM_P2
2022/05/20 00:00:40;;;;;;;5.47;3.63;;;18.40;99.90;;;;;;4963856;28;20035;-32
2022/05/20 00:03:06;;;;;;;5.22;3.10;;;18.30;99.90;;;;;;4959304;28;20066;-31
2022/05/20 00:05:33;;;;;;;8.13;2.60;;;18.20;99.90;;;;;;4966106;28;20019;-31
2022/05/20 00:08:00;;;;;;;5.25;2.42;;;18.30;99.90;;;;;;4970622;28;20014;-32
2022/05/20 00:10:27;;;;;;;6.20;2.75;;;18.20;99.90;;;;;;4946732;28;20568;-32
2022/05/20 00:12:53;;;;;;;4.15;2.40;;;18.40;99.90;;;;;;4975300;28;20093;-32
2022/05/20 00:15:22;;;;;;;4.82;2.50;;;18.40;99.90;;;;;;4964936;28;20392;-31
2022/05/20 00:17:48;;;;;;;7.00;3.60;;;18.50;99.90;;;;;;4972301;28;20031;-33
2022/05/20 00:20:17;;;;;;;4.28;3.25;;;18.60;99.90;;;;;;4974872;28;20041;-32
2022/05/20 00:22:43;;;;;;;5.07;2.72;;;18.60;99.90;;;;;;4968767;28;20023;-32
2022/05/20 00:27:55;;;;;;;2.97;2.65;;;18.70;99.90;;;;;;4970136;28;20041;-32
2022/05/20 00:30:20;;;;;;;3.67;2.60;;;18.70;99.90;;;;;;4963982;28;20050;-32
2022/05/20 00:32:46;;;;;;;3.40;2.50;;;18.80;99.90;;;;;;4966458;28;20510;-33
2022/05/20 00:35:16;;;;;;;3.47;2.30;;;18.80;99.90;;;;;;4971391;28;20446;-33
2022/05/20 00:37:41;;;;;;;3.35;2.83;;;18.80;99.90;;;;;;4965341;28;20039;-32
2022/05/20 00:40:10;;;;;;;3.70;2.45;;;18.70;99.90;;;;;;4971209;28;20038;-32
2022/05/20 00:42:36;;;;;;;2.95;2.50;;;18.70;99.90;;;;;;4973545;28;20846;-33
2022/05/20 00:45:03;;;;;;;5.20;2.50;;;18.80;99.90;;;;;;4976895;28;20030;-32
2022/05/20 00:47:29;;;;;;;4.53;2.63;;;18.80;99.90;;;;;;4979427;28;20034;-32
2022/05/20 00:49:58;;;;;;;3.67;2.63;;;18.80;99.90;;;;;;4967093;28;20034;-32
2022/05/20 00:52:28;;;;;;;5.95;2.50;;;18.80;99.90;;;;;;4962837;28;22178;-32
2022/05/20 00:54:59;;;;;;;3.45;2.75;;;18.70;99.90;;;;;;4947277;28;20475;-31
2022/05/20 00:57:32;;;;;;;6.28;2.75;;;18.80;99.70;;;;;;4945377;28;20026;-32
2022/05/20 01:00:06;;;;;;;5.05;2.38;;;18.80;99.60;;;;;;4966236;28;22400;-32
2022/05/20 01:02:34;;;;;;;4.32;2.63;;;18.80;99.90;;;;;;4970986;28;20039;-37
2022/05/20 01:05:03;;;;;;;4.37;2.63;;;18.80;99.90;;;;;;4953026;28;20031;-35
2022/05/20 01:07:35;;;;;;;4.35;2.90;;;18.80;99.90;;;;;;4953856;28;20286;-35
2022/05/20 01:10:02;;;;;;;4.60;2.47;;;18.80;99.90;;;;;;4950373;28;20060;-37
2022/05/20 01:12:30;;;;;;;3.47;2.50;;;18.70;99.90;;;;;;4962209;28;20113;-39
2022/05/20 01:14:59;;;;;;;3.72;2.70;;;18.70;99.90;;;;;;4983149;28;20480;-38
2022/05/20 01:17:28;;;;;;;3.92;2.50;;;18.60;99.90;;;;;;4966939;28;20038;-35
2022/05/20 01:19:56;;;;;;;3.53;2.63;;;18.50;99.90;;;;;;4967188;28;20031;-35
2022/05/20 01:22:40;;;;;;;3.85;2.85;;;18.50;99.90;;;;;;4963936;28;20027;-36
2022/05/20 01:25:09;;;;;;;4.25;2.65;;;18.50;99.90;;;;;;4960858;28;20050;-38
2022/05/20 01:27:42;;;;;;;3.67;2.60;;;18.50;99.90;;;;;;4957622;28;20054;-35
2022/05/20 01:30:12;;;;;;;3.75;2.50;;;18.40;99.90;;;;;;4962998;28;20035;-35
2022/05/20 01:32:38;;;;;;;2.78;2.58;;;18.50;99.90;;;;;;4964062;28;22119;-35
2022/05/20 01:35:08;;;;;;;4.22;2.65;;;18.40;99.90;;;;;;4951242;28;20031;-35
2022/05/20 01:37:34;;;;;;;5.30;2.50;;;18.40;99.90;;;;;;4957289;28;20382;-36
2022/05/20 01:40:09;;;;;;;3.80;2.47;;;18.40;99.90;;;;;;4961698;28;20085;-35
2022/05/20 01:42:56;;;;;;;2.85;2.60;;;18.50;99.90;;;;;;4954475;28;20106;-36
2022/05/20 01:45:36;;;;;;;4.17;3.03;;;18.40;99.90;;;;;;4955432;28;20432;-34
2022/05/20 01:48:17;;;;;;;4.07;2.72;;;18.30;99.90;;;;;;4962293;28;20042;-35
2022/05/20 01:50:51;;;;;;;4.05;3.65;;;18.30;99.90;;;;;;4942928;28;20086;-35
2022/05/20 01:53:38;;;;;;;3.90;3.28;;;18.30;99.90;;;;;;4926418;28;20047;-35
2022/05/20 01:56:39;;;;;;;2.83;2.53;;;18.30;99.90;;;;;;4963276;28;20070;-36
2022/05/20 01:59:39;;;;;;;3.38;2.53;;;18.20;99.90;;;;;;4957812;28;20023;-36
2022/05/20 02:02:33;;;;;;;3.47;2.40;;;18.30;99.90;;;;;;4959572;28;20837;-35
2022/05/20 02:05:26;;;;;;;5.40;3.08;;;18.20;99.90;;;;;;4954964;28;20030;-38
2022/05/20 02:08:06;;;;;;;3.83;2.67;;;18.10;99.90;;;;;;4962158;28;20027;-38
2022/05/20 02:10:46;;;;;;;5.15;2.85;;;18.10;99.90;;;;;;4957704;28;20110;-35
2022/05/20 02:13:16;;;;;;;5.93;2.60;;;18.10;99.90;;;;;;4947376;28;20038;-35
2022/05/20 02:16:08;;;;;;;3.65;3.05;;;18.10;99.90;;;;;;4954873;28;20492;-39
2022/05/20 02:18:41;;;;;;;2.95;2.38;;;18.00;99.90;;;;;;4952827;28;20086;-35
2022/05/20 02:21:13;;;;;;;4.20;2.88;;;18.10;99.90;;;;;;4954198;28;20030;-36
2022/05/20 02:23:49;;;;;;;4.82;3.05;;;18.00;99.90;;;;;;4961528;28;20106;-38
2022/05/20 02:26:26;;;;;;;3.45;3.15;;;18.00;99.90;;;;;;4982563;28;20491;-37
2022/05/20 02:29:02;;;;;;;3.33;2.85;;;18.00;99.90;;;;;;4982765;28;20085;-36
2022/05/20 02:32:12;;;;;;;4.35;2.92;;;17.90;99.90;;;;;;4977641;28;20042;-38
2022/05/20 02:34:41;;;;;;;5.68;2.90;;;17.90;99.90;;;;;;4920315;29;20605;-37
2022/05/20 02:37:26;;;;;;;5.72;3.10;;;17.90;99.90;;;;;;4962057;28;20104;-37
2022/05/20 02:39:54;;;;;;;3.92;3.13;;;17.80;99.90;;;;;;4982422;28;20121;-34
2022/05/20 02:42:21;;;;;;;4.40;3.22;;;17.80;99.90;;;;;;4966151;28;20034;-37
2022/05/20 02:44:49;;;;;;;3.78;3.20;;;17.90;99.90;;;;;;4963488;28;20022;-34
2022/05/20 02:47:15;;;;;;;3.60;2.70;;;17.80;99.90;;;;;;4962922;28;20038;-38
2022/05/20 02:49:41;;;;;;;3.20;2.85;;;17.90;99.90;;;;;;4965771;28;20416;-38
2022/05/20 02:52:07;;;;;;;5.25;2.78;;;17.80;99.90;;;;;;4974542;28;20042;-35
2022/05/20 02:54:36;;;;;;;3.75;2.80;;;17.80;99.90;;;;;;4963315;28;20472;-37
2022/05/20 02:57:04;;;;;;;4.70;3.25;;;17.70;99.90;;;;;;4959876;28;20022;-36
2022/05/20 03:04:59;;;;;;;4.10;2.78;;;17.40;99.90;;;;;;4968643;28;20122;-35
2022/05/20 03:07:25;;;;;;;5.30;3.50;;;17.50;99.90;;;;;;4961127;28;20022;-34
2022/05/20 03:09:55;;;;;;;6.28;3.30;;;17.60;99.90;;;;;;4961186;28;20037;-36
2022/05/20 03:12:21;;;;;;;4.25;3.30;;;17.50;99.90;;;;;;4951126;28;20366;-37
2022/05/20 03:14:47;;;;;;;3.90;3.00;;;17.40;99.90;;;;;;4965213;28;20038;-37
2022/05/20 03:17:12;;;;;;;3.67;3.08;;;17.40;99.90;;;;;;4959088;28;20027;-35
2022/05/20 03:19:39;;;;;;;5.30;3.10;;;17.40;99.90;;;;;;4959543;28;20035;-36
2022/05/20 03:22:09;;;;;;;3.55;2.90;;;17.30;99.90;;;;;;4960790;28;20062;-37
2022/05/20 03:24:41;;;;;;;3.55;3.05;;;17.20;99.90;;;;;;4978791;28;20114;-35
2022/05/20 03:27:07;;;;;;;3.83;3.00;;;17.30;99.90;;;;;;4955604;28;20043;-35
2022/05/20 03:29:38;;;;;;;3.78;3.17;;;17.30;99.90;;;;;;4963784;28;20664;-36
2022/05/20 03:32:07;;;;;;;4.65;3.42;;;17.20;99.90;;;;;;4957148;28;20122;-35
2022/05/20 03:34:33;;;;;;;4.90;3.35;;;17.20;99.90;;;;;;4955173;28;20047;-36
2022/05/20 03:36:59;;;;;;;4.18;3.17;;;17.20;99.90;;;;;;4953585;28;20027;-37
2022/05/20 03:39:33;;;;;;;6.05;3.30;;;17.20;99.90;;;;;;4962218;28;20057;-34
2022/05/20 03:41:59;;;;;;;4.07;3.20;;;17.10;99.90;;;;;;4962669;28;20031;-37
2022/05/20 03:44:30;;;;;;;4.38;3.38;;;17.00;99.90;;;;;;4946533;28;20125;-35
2022/05/20 03:46:57;;;;;;;6.57;3.33;;;17.00;99.90;;;;;;4957773;28;20030;-37
2022/05/20 03:49:33;;;;;;;3.47;2.97;;;17.10;99.90;;;;;;4958539;28;20038;-35
2022/05/20 03:52:00;;;;;;;6.30;3.92;;;17.10;99.90;;;;;;4961810;28;20386;-35
2022/05/20 03:54:30;;;;;;;5.32;3.75;;;16.90;99.90;;;;;;4961890;28;20117;-36
2022/05/20 03:56:55;;;;;;;2.92;2.63;;;16.80;99.90;;;;;;4934867;28;20097;-35
2022/05/20 03:59:39;;;;;;;4.57;3.10;;;16.80;99.90;;;;;;4954383;28;20047;-35
2022/05/20 04:02:11;;;;;;;6.28;3.53;;;16.90;99.90;;;;;;4952356;28;20074;-35
2022/05/20 04:04:42;;;;;;;4.65;3.45;;;16.90;99.90;;;;;;4947077;28;20518;-35
2022/05/20 04:07:10;;;;;;;4.20;3.30;;;16.90;99.90;;;;;;4948862;28;20035;-38
2022/05/20 04:09:37;;;;;;;6.25;3.33;;;16.80;99.90;;;;;;4957868;28;20031;-39
2022/05/20 04:12:06;;;;;;;6.20;3.92;;;16.60;99.90;;;;;;4955472;28;20144;-36
2022/05/20 04:14:33;;;;;;;5.30;3.30;;;16.60;99.90;;;;;;4947024;28;20023;-39
2022/05/20 04:17:00;;;;;;;5.93;3.22;;;16.50;99.90;;;;;;4954923;28;20026;-35
2022/05/20 04:19:29;;;;;;;3.42;3.08;;;16.50;99.90;;;;;;4935506;28;20031;-37
2022/05/20 04:21:59;;;;;;;4.47;3.28;;;16.40;99.90;;;;;;4960095;28;20038;-36
2022/05/20 04:24:26;;;;;;;4.22;3.40;;;16.50;99.90;;;;;;4945746;28;20043;-35
2022/05/20 04:26:52;;;;;;;5.22;3.25;;;16.50;99.90;;;;;;4978178;28;20074;-36
2022/05/20 04:29:18;;;;;;;5.82;3.83;;;16.50;99.90;;;;;;4967410;28;20484;-35
2022/05/20 04:31:47;;;;;;;9.52;3.42;;;16.50;99.90;;;;;;4953628;28;20541;-39
2022/05/20 04:34:18;;;;;;;3.95;3.33;;;16.50;99.90;;;;;;4980684;28;20026;-35
2022/05/20 04:36:45;;;;;;;4.03;3.35;;;16.50;99.90;;;;;;4946022;28;20058;-36
2022/05/20 04:39:12;;;;;;;5.70;3.80;;;16.50;99.90;;;;;;4953890;28;20030;-35
2022/05/20 04:47:19;;;;;;;6.22;3.70;;;16.60;99.90;;;;;;4980162;28;21465;-35
2022/05/20 04:49:47;;;;;;;5.50;3.40;;;16.50;99.90;;;;;;4957279;28;20022;-38
2022/05/20 04:52:13;;;;;;;6.40;3.67;;;16.50;99.90;;;;;;4955304;28;20023;-35
2022/05/20 04:54:52;;;;;;;7.28;3.70;;;16.60;99.90;;;;;;4955772;28;20034;-34
2022/05/20 04:57:21;;;;;;;4.32;3.67;;;16.80;99.90;;;;;;4950537;28;20039;-37
2022/05/20 04:59:57;;;;;;;5.25;3.50;;;16.80;99.90;;;;;;4959139;28;20065;-36
2022/05/20 05:02:24;;;;;;;5.22;4.05;;;16.80;99.90;;;;;;4970656;28;20038;-35
2022/05/20 05:04:51;;;;;;;4.05;3.65;;;16.80;99.90;;;;;;4959745;28;20391;-37
2022/05/20 05:07:18;;;;;;;6.28;3.78;;;16.80;99.90;;;;;;4953734;28;20488;-36
2022/05/20 05:09:45;;;;;;;4.38;3.15;;;16.80;99.90;;;;;;4986342;28;20031;-35
2022/05/20 05:12:12;;;;;;;5.88;4.18;;;16.90;99.90;;;;;;4951205;28;20037;-36
2022/05/20 05:14:51;;;;;;;6.32;3.83;;;17.00;99.90;;;;;;4971187;28;20106;-35
2022/05/20 05:18:09;;;;;;;6.00;4.00;;;17.10;99.90;;;;;;4983464;28;20038;-36
2022/05/20 05:20:20;;;;;;;6.60;4.00;;;17.10;99.90;;;;;;4973199;28;20039;-34
2022/05/20 05:22:48;;;;;;;4.78;3.92;;;17.20;99.90;;;;;;4953433;28;20030;-39
2022/05/20 05:25:14;;;;;;;4.57;3.83;;;17.30;99.90;;;;;;4950732;28;21408;-35
2022/05/20 05:27:41;;;;;;;4.50;3.92;;;17.40;99.90;;;;;;4950265;28;20586;-35
2022/05/20 05:30:11;;;;;;;5.25;3.80;;;17.50;99.90;;;;;;4953592;28;20019;-35
2022/05/20 05:32:38;;;;;;;6.55;3.60;;;17.50;99.90;;;;;;4941065;28;20058;-38
2022/05/20 05:35:10;;;;;;;7.93;4.28;;;17.60;99.90;;;;;;4944898;28;20042;-37
2022/05/20 05:37:39;;;;;;;7.35;3.88;;;17.80;99.90;;;;;;4958540;28;20034;-37
2022/05/20 05:40:07;;;;;;;7.35;4.30;;;17.90;99.90;;;;;;4961182;28;20058;-37
2022/05/20 05:42:33;;;;;;;5.75;4.50;;;17.90;99.90;;;;;;4963926;28;20160;-38
2022/05/20 05:45:00;;;;;;;6.65;3.88;;;18.00;99.90;;;;;;4965174;28;20102;-35
2022/05/20 05:47:27;;;;;;;4.60;3.88;;;18.10;99.90;;;;;;4964070;28;21601;-35
2022/05/20 05:49:53;;;;;;;5.70;4.03;;;18.10;99.90;;;;;;4965681;28;20042;-35
2022/05/20 05:52:19;;;;;;;7.07;4.15;;;18.30;99.90;;;;;;4970255;28;20106;-37
2022/05/20 05:54:45;;;;;;;5.82;4.38;;;18.40;99.90;;;;;;4966729;28;20027;-35
2022/05/20 05:57:12;;;;;;;4.53;3.90;;;18.50;99.90;;;;;;4971191;28;20027;-36
2022/05/20 05:59:39;;;;;;;4.80;4.15;;;18.70;99.90;;;;;;4971892;28;20035;-34
2022/05/20 06:02:08;;;;;;;5.00;3.83;;;18.80;99.90;;;;;;4971703;28;20064;-37
2022/05/20 06:04:34;;;;;;;5.05;4.13;;;19.00;99.90;;;;;;4969640;28;20031;-35
2022/05/20 06:07:00;;;;;;;5.85;3.88;;;19.00;99.90;;;;;;4960495;28;20034;-37
2022/05/20 06:09:27;;;;;;;6.25;4.38;;;19.20;99.90;;;;;;4968440;28;20114;-37
2022/05/20 06:11:53;;;;;;;5.72;4.45;;;19.40;99.90;;;;;;4967340;28;20766;-37
2022/05/20 06:14:20;;;;;;;5.85;4.25;;;19.50;99.90;;;;;;4962087;28;20024;-35
2022/05/20 06:16:48;;;;;;;6.38;4.22;;;19.60;99.90;;;;;;4961683;28;20027;-39
2022/05/20 06:19:16;;;;;;;7.35;4.78;;;19.80;99.90;;;;;;4965652;28;20527;-37
2022/05/20 06:21:43;;;;;;;6.03;4.20;;;19.90;99.90;;;;;;4968755;28;20031;-35
2022/05/20 06:24:09;;;;;;;8.98;4.50;;;20.10;99.90;;;;;;4967013;28;20035;-36
2022/05/20 06:26:38;;;;;;;6.18;3.85;;;20.10;99.90;;;;;;4967515;28;20548;-36
2022/05/20 06:29:05;;;;;;;4.90;3.88;;;20.30;99.90;;;;;;4965148;28;20044;-36
2022/05/20 06:31:32;;;;;;;;;;;20.20;99.90;;;;;;4961835;28;20523;-34
2022/05/20 06:33:58;;;;;;;4.20;3.65;;;20.40;99.90;;;;;;4963059;28;19916;-36
2022/05/20 06:41:57;;;;;;;5.43;3.67;;;20.70;97.10;;;;;;4964447;28;20038;-35
2022/05/20 06:44:24;;;;;;;4.32;3.20;;;20.60;99.30;;;;;;4960666;28;20484;-35
2022/05/20 06:46:52;;;;;;;3.85;3.42;;;20.80;99.60;;;;;;4960499;28;20154;-34
2022/05/20 06:49:18;;;;;;;3.85;3.33;;;20.90;98.60;;;;;;4970191;28;20022;-37
2022/05/20 06:51:44;;;;;;;4.35;3.78;;;21.00;98.30;;;;;;4987015;28;20035;-35
2022/05/20 06:54:11;;;;;;;4.95;3.85;;;21.20;98.30;;;;;;4963538;28;20125;-38
2022/05/20 06:56:39;;;;;;;3.90;3.33;;;21.40;97.70;;;;;;4963628;28;20050;-38
2022/05/20 06:59:07;;;;;;;5.63;3.17;;;21.40;97.20;;;;;;4965049;28;20117;-38
2022/05/20 07:01:33;;;;;;;4.43;3.45;;;21.60;97.90;;;;;;4956723;28;20062;-35
2022/05/20 07:04:00;;;;;;;4.22;3.38;;;21.80;95.40;;;;;;4946513;28;20027;-34
2022/05/20 07:06:27;;;;;;;3.95;3.53;;;21.90;96.70;;;;;;4971190;28;20644;-35
2022/05/20 07:08:54;;;;;;;3.97;3.45;;;22.10;95.50;;;;;;4964180;28;20086;-37
2022/05/20 07:11:23;;;;;;;4.15;3.33;;;22.20;95.20;;;;;;4962610;28;20497;-36
2022/05/20 07:13:54;;;;;;;3.33;2.92;;;22.10;92.50;;;;;;4968124;28;20451;-35
2022/05/20 07:16:25;;;;;;;4.15;3.10;;;22.30;93.40;;;;;;4968564;28;20551;-36
2022/05/20 07:18:52;;;;;;;4.47;2.95;;;22.30;90.60;;;;;;4965698;28;20038;-37
2022/05/20 07:21:18;;;;;;;3.90;3.22;;;22.50;93.20;;;;;;4968442;28;20059;-35
2022/05/20 07:23:45;;;;;;;4.32;3.28;;;22.80;93.00;;;;;;4973994;28;20057;-36
2022/05/20 07:26:13;;;;;;;4.43;3.15;;;23.00;90.60;;;;;;4966310;28;20043;-35
2022/05/20 07:28:40;;;;;;;3.47;3.08;;;22.90;90.00;;;;;;4974195;28;20122;-35
2022/05/20 07:31:06;;;;;;;4.78;2.90;;;23.30;90.20;;;;;;4971643;28;20031;-35
2022/05/20 07:33:33;;;;;;;3.85;3.10;;;23.30;89.80;;;;;;4972832;28;20331;-36
2022/05/20 07:35:59;;;;;;;3.05;2.72;;;23.50;86.40;;;;;;4984045;28;20034;-35
2022/05/20 07:38:27;;;;;;;4.45;3.33;;;23.60;79.80;;;;;;4980560;28;20031;-35
2022/05/20 07:40:57;;;;;;;3.40;2.90;;;23.60;86.10;;;;;;4974833;28;20801;-35
2022/05/20 07:43:24;;;;;;;4.63;2.90;;;23.70;77.50;;;;;;4974163;28;20117;-35
2022/05/20 07:45:51;;;;;;;3.20;2.90;;;23.80;79.80;;;;;;4967170;28;20023;-36
2022/05/20 07:48:19;;;;;;;3.85;3.17;;;23.80;73.90;;;;;;4975863;28;20133;-36
2022/05/20 07:50:48;;;;;;;4.23;2.40;;;24.10;83.20;;;;;;4974400;28;20045;-36
2022/05/20 07:53:20;;;;;;;3.72;3.20;;;24.40;81.80;;;;;;4961675;28;20782;-37
2022/05/20 07:56:00;;;;;;;2.75;2.50;;;24.60;69.90;;;;;;4961594;28;20131;-37
2022/05/20 07:58:36;;;;;;;4.35;3.08;;;24.50;76.30;;;;;;4973327;28;20034;-35
2022/05/20 08:01:04;;;;;;;3.63;2.80;;;24.70;72.70;;;;;;4977925;28;20431;-37
2022/05/20 08:06:19;;;;;;;3.78;2.92;;;25.00;69.30;;;;;;4962246;28;20057;-38
2022/05/20 08:08:45;;;;;;;2.95;2.65;;;25.10;69.90;;;;;;4964556;28;20027;-37
2022/05/20 08:11:12;;;;;;;3.20;2.80;;;25.20;69.50;;;;;;4962419;28;20027;-36
2022/05/20 08:13:39;;;;;;;4.18;3.00;;;25.20;67.80;;;;;;4959910;28;20031;-39
2022/05/20 08:16:06;;;;;;;3.10;2.87;;;25.40;68.90;;;;;;4959726;28;20058;-36
2022/05/20 08:18:33;;;;;;;4.60;3.00;;;25.20;63.90;;;;;;4968504;28;20400;-36
2022/05/20 08:20:59;;;;;;;3.83;3.00;;;25.20;70.00;;;;;;4967414;28;20035;-37
2022/05/20 08:23:26;;;;;;;3.92;2.80;;;25.60;63.90;;;;;;4961027;28;20060;-35
2022/05/20 08:25:53;;;;;;;3.33;2.87;;;25.90;65.00;;;;;;4960313;28;20051;-35
2022/05/20 08:28:21;;;;;;;3.20;2.90;;;26.10;62.90;;;;;;4957943;28;20027;-38
2022/05/20 08:30:48;;;;;;;3.60;3.08;;;26.00;67.40;;;;;;4956538;28;20042;-36
2022/05/20 08:33:14;;;;;;;4.23;2.93;;;26.40;62.20;;;;;;4960680;28;20041;-36
2022/05/20 08:35:41;;;;;;;4.22;3.38;;;26.60;64.90;;;;;;4958778;28;20043;-36
2022/05/20 08:38:08;;;;;;;7.47;3.43;;;26.50;60.80;;;;;;4961299;28;20035;-35
2022/05/20 08:40:49;;;;;;;3.20;2.70;;;26.60;63.30;;;;;;4959269;28;20125;-35
2022/05/20 08:43:19;;;;;;;3.42;3.00;;;27.00;62.60;;;;;;4967245;28;20101;-37
2022/05/20 08:45:45;;;;;;;5.00;3.15;;;27.40;61.80;;;;;;4946549;28;20119;-35
2022/05/20 08:48:12;;;;;;;3.85;3.13;;;27.50;61.50;;;;;;4967377;28;20031;-35
2022/05/20 08:50:47;;;;;;;4.85;3.22;;;27.00;60.10;;;;;;4961707;28;20049;-35
2022/05/20 08:53:21;;;;;;;4.47;3.17;;;27.10;56.70;;;;;;4960520;28;20030;-36
2022/05/20 08:55:48;;;;;;;3.35;2.92;;;27.10;59.90;;;;;;4967541;28;20030;-37
2022/05/20 08:58:22;;;;;;;4.03;2.90;;;27.20;62.00;;;;;;4961531;28;20113;-36
2022/05/20 09:00:49;;;;;;;3.40;3.00;;;27.10;54.90;;;;;;4962409;28;20043;-37
2022/05/20 09:03:16;;;;;;;3.45;3.15;;;27.20;60.70;;;;;;4963967;28;20051;-35
2022/05/20 09:05:45;;;;;;;4.03;3.05;;;27.60;57.70;;;;;;4957560;28;20023;-35
2022/05/20 09:08:17;;;;;;;5.20;3.30;;;28.00;57.70;;;;;;4956159;28;20023;-34
2022/05/20 09:10:47;;;;;;;5.95;3.08;;;28.30;55.70;;;;;;4966850;28;20050;-35
2022/05/20 09:15:43;;;;;;;3.53;3.22;;;28.40;60.10;;;;;;4967322;28;20109;-34
2022/05/20 09:16:33;;;;;;;3.50;3.20;;;28.60;55.90;;;;;;4962133;28;20114;-36
2022/05/20 09:19:10;;;;;;;4.50;3.13;;;28.90;54.50;;;;;;4961220;28;20031;-35
2022/05/20 09:21:39;;;;;;;5.10;3.25;;;28.90;54.00;;;;;;4972718;28;20039;-35
2022/05/20 09:24:27;;;;;;;3.95;2.90;;;28.60;52.70;;;;;;4976414;28;20027;-35
2022/05/20 09:27:30;;;;;;;3.47;2.72;;;28.50;51.90;;;;;;4961803;28;20039;-35
2022/05/20 09:30:06;;;;;;;3.95;2.90;;;28.40;49.40;;;;;;4966487;28;20035;-36
2022/05/20 09:33:00;;;;;;;4.43;2.50;;;27.70;49.70;;;;;;4976006;28;20094;-35
2022/05/20 09:35:33;;;;;;;3.88;2.83;;;28.30;52.90;;;;;;4971862;28;20037;-36
2022/05/20 09:38:07;;;;;;;4.45;3.38;;;28.20;56.60;;;;;;4970255;28;20035;-36
2022/05/20 09:40:39;;;;;;;3.72;3.03;;;28.40;51.50;;;;;;4976486;28;20043;-35
2022/05/20 09:43:09;;;;;;;4.18;3.20;;;28.30;49.20;;;;;;4970157;28;20216;-34
2022/05/20 09:45:46;;;;;;;4.90;3.08;;;28.60;52.30;;;;;;4971795;28;20020;-35
2022/05/20 09:48:34;;;;;;;3.40;3.10;;;28.90;54.30;;;;;;4974816;28;20033;-35
2022/05/20 09:51:20;;;;;;;4.82;3.10;;;29.00;51.50;;;;;;4975094;28;20031;-35
2022/05/20 09:54:12;;;;;;;3.80;3.05;;;29.30;48.60;;;;;;4977165;28;20392;-35
2022/05/20 09:56:45;;;;;;;3.50;3.08;;;29.60;50.10;;;;;;4961042;28;20738;-35
2022/05/20 09:59:34;;;;;;;3.20;2.90;;;29.50;49.50;;;;;;4981925;28;20058;-36
2022/05/20 10:02:49;;;;;;;3.83;2.80;;;29.60;49.10;;;;;;4970730;28;20035;-38
2022/05/20 10:05:27;;;;;;;3.83;2.90;;;29.40;50.20;;;;;;4923203;28;20397;-38
2022/05/20 10:08:01;;;;;;;3.10;2.80;;;29.30;46.30;;;;;;4969792;28;20475;-36
2022/05/20 10:10:54;;;;;;;3.15;2.80;;;29.10;47.40;;;;;;4972032;28;20045;-36
2022/05/20 10:13:53;;;;;;;4.93;3.15;;;29.70;48.40;;;;;;4972354;28;20492;-36
2022/05/20 10:16:48;;;;;;;4.72;3.20;;;29.60;48.20;;;;;;4974593;28;20038;-34
2022/05/20 10:19:35;;;;;;;4.68;2.90;;;29.50;48.20;;;;;;4959940;28;20435;-37
2022/05/20 10:22:26;;;;;;;3.55;3.03;;;29.70;49.30;;;;;;4970687;28;20035;-35
2022/05/20 10:25:06;;;;;;;5.03;3.20;;;29.40;46.00;;;;;;4920336;28;20492;-35
2022/05/20 10:27:35;;;;;;;4.75;2.78;;;29.20;44.90;;;;;;4965225;28;20425;-37
2022/05/20 10:33:09;;;;;;;3.30;2.55;;;29.30;45.10;;;;;;4983117;28;20045;-34
2022/05/20 10:36:29;;;;;;;3.03;2.72;;;29.30;43.30;;;;;;4968477;28;20463;-36
2022/05/20 10:39:23;;;;;;;5.00;2.80;;;29.10;43.70;;;;;;4948899;28;20023;-35
2022/05/20 10:42:00;;;;;;;3.20;2.55;;;29.40;45.20;;;;;;4969320;28;20131;-35
2022/05/20 10:51:00;;;;;;;;;;;29.10;44.60;;;;;;4992378;28;20037;-34
2022/05/20 10:53:57;;;;;;;2.83;2.50;;;29.30;45.10;;;;;;4964357;28;19918;-35
2022/05/20 10:56:24;;;;;;;;;;;29.70;44.80;;;;;;4959132;28;20824;-36
2022/05/20 10:58:56;;;;;;;4.25;3.03;;;29.80;44.70;;;;;;4974400;28;19920;-35
2022/05/20 11:02:00;;;;;;;3.88;2.80;;;29.30;41.20;;;;;;4974601;28;20049;-37
2022/05/20 11:04:32;;;;;;;3.15;2.58;;;29.30;44.30;;;;;;4987862;28;20030;-38
2022/05/20 11:07:16;;;;;;;3.72;2.70;;;29.40;43.90;;;;;;4980596;28;20383;-35
2022/05/20 11:09:59;;;;;;;3.08;2.78;;;29.20;43.30;;;;;;4963000;28;20027;-36
2022/05/20 11:12:34;;;;;;;3.00;2.70;;;29.30;48.50;;;;;;4990286;28;20049;-35
2022/05/20 11:15:21;;;;;;;4.00;3.05;;;29.40;45.70;;;;;;4974058;28;20487;-36
2022/05/20 11:17:59;;;;;;;3.08;2.60;;;29.40;44.70;;;;;;4985989;28;20077;-35
2022/05/20 11:20:46;;;;;;;5.03;2.55;;;29.10;44.70;;;;;;4956621;28;20062;-36
2022/05/20 11:23:20;;;;;;;;;;;29.00;43.90;;;;;;4971642;28;20038;-39
2022/05/20 11:26:20;;;;;;;2.67;2.33;;;29.10;42.70;;;;;;4973899;28;19922;-37
2022/05/20 11:29:05;;;;;;;2.80;2.55;;;29.10;39.80;;;;;;4966539;28;20035;-34
2022/05/20 11:31:58;;;;;;;2.90;2.55;;;28.90;40.70;;;;;;4956058;28;20035;-37
2022/05/20 11:34:33;;;;;;;2.60;2.38;;;29.10;39.60;;;;;;4959871;28;20955;-37
2022/05/20 11:37:24;;;;;;;4.07;2.58;;;29.10;39.30;;;;;;4960352;28;20668;-36
2022/05/20 11:40:13;;;;;;;3.70;2.30;;;29.10;41.40;;;;;;4974035;28;20026;-37
2022/05/20 11:42:53;;;;;;;7.00;2.40;;;29.10;42.00;;;;;;4969225;28;20036;-35
2022/05/20 11:45:43;;;;;;;4.15;2.60;;;29.20;41.80;;;;;;4969045;28;20098;-36
2022/05/20 11:48:20;;;;;;;4.45;2.50;;;29.20;43.30;;;;;;4967395;28;20023;-36
2022/05/20 11:51:19;;;;;;;2.85;2.47;;;29.20;41.80;;;;;;4962906;28;20602;-35
2022/05/20 11:54:00;;;;;;;4.07;2.50;;;28.90;42.00;;;;;;4966553;28;20094;-38
2022/05/20 11:56:48;;;;;;;3.70;2.38;;;29.10;43.00;;;;;;4962530;28;20059;-35
2022/05/20 11:59:19;;;;;;;3.78;2.30;;;29.10;39.70;;;;;;4959135;28;20058;-35
2022/05/20 12:01:51;;;;;;;3.80;2.17;;;29.00;40.40;;;;;;4956265;28;21394;-35
2022/05/20 12:04:20;;;;;;;4.72;2.50;;;29.00;38.10;;;;;;4959481;28;20031;-38
2022/05/20 12:06:49;;;;;;;4.45;2.05;;;29.10;40.30;;;;;;4963102;28;20492;-36
2022/05/20 12:09:30;;;;;;;4.60;2.45;;;29.00;43.60;;;;;;4958256;28;20027;-38
2022/05/20 12:12:24;;;;;;;4.75;2.55;;;28.90;39.50;;;;;;4954909;28;20883;-37
2022/05/20 12:15:05;;;;;;;2.70;2.40;;;28.80;40.40;;;;;;4961500;28;20717;-35
2022/05/20 12:17:45;;;;;;;4.85;2.10;;;28.80;40.50;;;;;;4966974;28;20026;-35
2022/05/20 12:26:00;;;;;;;3.28;2.20;;;29.00;39.80;;;;;;4976303;28;20059;-39
2022/05/20 12:28:30;;;;;;;2.53;2.20;;;29.00;41.70;;;;;;4973856;28;20022;-36
2022/05/20 12:31:13;;;;;;;3.50;2.60;;;28.80;39.00;;;;;;4975058;28;20066;-36
2022/05/20 12:33:59;;;;;;;2.67;2.47;;;29.00;42.00;;;;;;4973334;28;20064;-39
2022/05/20 12:36:27;;;;;;;4.05;2.40;;;29.30;44.60;;;;;;4969242;28;20042;-39
2022/05/20 12:39:16;;;;;;;4.55;2.38;;;29.20;41.00;;;;;;4987079;28;20062;-35
2022/05/20 12:41:48;;;;;;;3.80;1.90;;;29.30;41.90;;;;;;4973654;28;20495;-40
2022/05/20 12:44:17;;;;;;;5.78;2.95;;;29.20;38.40;;;;;;4976669;28;20030;-38
2022/05/20 12:46:51;;;;;;;4.10;2.20;;;29.20;41.10;;;;;;4992462;28;20094;-36
2022/05/20 12:49:19;;;;;;;3.67;2.47;;;29.30;40.90;;;;;;4966294;28;20035;-36
2022/05/20 12:51:49;;;;;;;3.47;2.50;;;29.30;39.60;;;;;;4980700;28;20035;-38
2022/05/20 12:54:24;;;;;;;5.68;2.40;;;29.40;42.60;;;;;;4972520;28;20054;-39
2022/05/20 12:57:10;;;;;;;3.83;2.80;;;29.40;42.00;;;;;;4985772;28;20045;-36
2022/05/20 12:59:36;;;;;;;2.88;2.08;;;29.40;39.80;;;;;;4999485;28;20030;-39
2022/05/20 13:02:13;;;;;;;5.82;2.50;;;29.30;40.20;;;;;;4973128;28;20027;-35
2022/05/20 13:04:47;;;;;;;8.00;2.55;;;29.30;39.90;;;;;;4991234;28;20023;-36
2022/05/20 13:07:17;;;;;;;3.35;2.58;;;29.30;39.90;;;;;;4997239;28;20030;-37
2022/05/20 13:09:45;;;;;;;4.05;2.45;;;29.30;43.20;;;;;;4971159;28;20019;-36
2022/05/20 13:12:18;;;;;;;2.63;1.90;;;29.50;43.10;;;;;;4965329;28;20909;-36
2022/05/20 13:14:54;;;;;;;3.35;2.30;;;29.50;40.10;;;;;;4966983;28;20066;-38
2022/05/20 13:17:21;;;;;;;7.57;3.05;;;29.60;42.80;;;;;;4967388;28;20034;-38
2022/05/20 13:19:55;;;;;;;2.78;2.58;;;29.50;41.60;;;;;;4972064;28;20126;-38
2022/05/20 13:22:25;;;;;;;3.33;2.60;;;29.50;40.70;;;;;;4982507;28;20030;-37
2022/05/20 13:24:57;;;;;;;3.83;2.13;;;29.50;40.10;;;;;;4987016;28;20081;-37
2022/05/20 13:27:23;;;;;;;2.92;2.28;;;29.40;38.70;;;;;;4963981;28;20027;-37
2022/05/20 13:29:51;;;;;;;6.35;2.15;;;29.40;36.50;;;;;;4982880;28;20029;-36
2022/05/20 13:32:32;;;;;;;6.00;2.22;;;29.40;37.00;;;;;;4965858;28;20078;-35
2022/05/20 13:35:00;;;;;;;3.55;2.28;;;29.50;37.40;;;;;;4967533;28;20058;-36
2022/05/20 13:37:33;;;;;;;2.78;2.28;;;29.50;40.50;;;;;;4984170;28;20050;-36
2022/05/20 13:40:22;;;;;;;3.80;2.20;;;29.50;37.10;;;;;;4968829;28;20026;-35
2022/05/20 13:42:53;;;;;;;3.38;2.42;;;29.50;36.80;;;;;;4967677;28;20038;-38
2022/05/20 13:51:09;;;;;;;6.68;2.28;;;29.80;43.20;;;;;;4968134;28;20049;-37
2022/05/20 13:53:38;;;;;;;3.45;2.30;;;29.70;39.30;;;;;;4967962;28;20031;-36
2022/05/20 13:56:07;;;;;;;4.53;2.35;;;29.70;36.80;;;;;;4968836;28;20037;-36
2022/05/20 13:58:35;;;;;;;4.28;2.55;;;29.80;38.10;;;;;;4967070;28;20038;-35
2022/05/20 14:01:03;;;;;;;3.03;2.10;;;29.70;37.60;;;;;;4974678;28;20038;-35